Time;durP1;ratioP1;P1;durP2;ratioP2;P2;SDS_P1;SDS_P2;PMS_P1;PMS_P2;Temp;Humidity;BMP_temperature;BMP_pressure;BME280_temperature;BME280_humidity;BME280_pressure;Samples;Min_cycle;Max_cycle;Signal;HPM_P1;HPM_P2
2022/03/01 00:00:00;;;;;;;17.70;10.07;;;;;;;;;;4944942;28;20134;-96
2022/03/01 00:02:26;;;;;;;18.50;10.60;;;;;;;;;;4945283;28;20418;-94
2022/03/01 00:04:52;;;;;;;15.77;10.43;;;;;;;;;;4977773;28;20354;-95
2022/03/01 00:07:18;;;;;;;18.15;10.88;;;;;;;;;;4944990;28;20126;-95
2022/03/01 00:09:44;;;;;;;16.77;10.95;;;;;;;;;;4944850;28;20089;-95
2022/03/01 00:12:10;;;;;;;21.05;11.10;;;;;;;;;;4944359;28;20555;-95
2022/03/01 00:14:36;;;;;;;15.60;10.23;;;;;;;;;;4960574;28;20039;-95
2022/03/01 00:17:03;;;;;;;17.10;10.38;;;;;;;;;;4960553;28;20129;-95
2022/03/01 00:19:29;;;;;;;16.85;10.48;;;;;;;;;;4960559;28;20054;-95
2022/03/01 00:21:59;;;;;;;17.77;10.52;;;;;;;;;;4944663;28;20045;-96
2022/03/01 00:24:25;;;;;;;16.48;10.30;;;;;;;;;;4960686;28;20043;-95
2022/03/01 00:26:51;;;;;;;19.02;11.07;;;;;;;;;;4960146;28;20089;-94
2022/03/01 00:29:17;;;;;;;18.75;11.40;;;;;;;;;;4960687;28;20047;-94
2022/03/01 00:31:43;;;;;;;17.85;11.25;;;;;;;;;;4960411;28;20050;-93
2022/03/01 00:34:09;;;;;;;17.23;10.32;;;;;;;;;;4960520;28;20072;-95
2022/03/01 00:36:36;;;;;;;18.55;11.23;;;;;;;;;;4959972;28;20039;-96
2022/03/01 00:39:04;;;;;;;16.00;10.00;;;;;;;;;;4944287;28;20047;-95
2022/03/01 00:41:30;;;;;;;15.70;10.80;;;;;;;;;;4960329;28;20477;-96
2022/03/01 00:43:55;;;;;;;19.88;10.30;;;;;;;;;;4944169;28;20070;-94
2022/03/01 00:46:23;;;;;;;17.42;11.00;;;;;;;;;;4959833;28;20069;-95
2022/03/01 00:48:49;;;;;;;15.88;10.10;;;;;;;;;;4959770;28;20089;-95
2022/03/01 00:51:15;;;;;;;16.77;10.70;;;;;;;;;;4944318;28;20039;-95
2022/03/01 00:53:41;;;;;;;16.10;10.38;;;;;;;;;;4959669;28;20401;-93
2022/03/01 00:56:07;;;;;;;21.63;11.00;;;;;;;;;;4944314;28;20047;-94
2022/03/01 00:58:33;;;;;;;18.73;10.57;;;;;;;;;;4945851;28;20073;-94
2022/03/01 01:00:59;;;;;;;18.25;10.93;;;;;;;;;;4959412;28;20046;-94
2022/03/01 01:03:25;;;;;;;19.27;10.70;;;;;;;;;;4943599;28;20039;-93
2022/03/01 01:05:51;;;;;;;16.95;10.63;;;;;;;;;;4959400;28;20047;-94
2022/03/01 01:08:17;;;;;;;18.45;11.45;;;;;;;;;;4959840;28;20042;-94
2022/03/01 01:10:43;;;;;;;17.85;11.15;;;;;;;;;;4958812;28;20055;-93
2022/03/01 01:13:09;;;;;;;19.17;11.30;;;;;;;;;;4959672;28;20089;-96
2022/03/01 01:15:35;;;;;;;17.20;10.43;;;;;;;;;;4959005;28;20046;-94
2022/03/01 01:18:01;;;;;;;16.98;10.88;;;;;;;;;;4959131;28;20043;-93
2022/03/01 01:20:27;;;;;;;19.52;11.15;;;;;;;;;;4958842;28;20046;-95
2022/03/01 01:22:53;;;;;;;19.15;11.15;;;;;;;;;;4959004;28;20046;-95
2022/03/01 01:25:23;;;;;;;17.77;10.68;;;;;;;;;;4959432;28;20045;-95
2022/03/01 01:27:53;;;;;;;17.13;10.95;;;;;;;;;;4942917;28;20038;-93
2022/03/01 01:30:21;;;;;;;19.40;11.57;;;;;;;;;;4959043;28;20043;-95
2022/03/01 01:32:48;;;;;;;18.70;11.65;;;;;;;;;;4959156;28;20501;-93
2022/03/01 01:35:15;;;;;;;18.17;10.98;;;;;;;;;;4959214;28;20431;-95
2022/03/01 01:37:41;;;;;;;18.63;10.93;;;;;;;;;;4942838;28;20043;-95
2022/03/01 01:40:09;;;;;;;16.50;10.38;;;;;;;;;;4943346;28;20491;-94
2022/03/01 01:42:35;;;;;;;16.08;10.95;;;;;;;;;;4943010;28;20050;-95
2022/03/01 01:45:01;;;;;;;20.13;11.68;;;;;;;;;;4958948;28;20105;-93
2022/03/01 01:47:27;;;;;;;22.33;11.77;;;;;;;;;;4959006;28;20038;-95
2022/03/01 01:49:53;;;;;;;19.92;11.38;;;;;;;;;;4943049;28;20054;-95
2022/03/01 01:52:20;;;;;;;18.25;10.90;;;;;;;;;;4958554;28;20082;-94
2022/03/01 01:54:46;;;;;;;17.60;11.30;;;;;;;;;;4959153;28;20137;-94
2022/03/01 01:57:16;;;;;;;17.98;10.45;;;;;;;;;;4958803;28;20125;-94
2022/03/01 01:59:42;;;;;;;17.48;10.45;;;;;;;;;;4958783;28;20055;-94
2022/03/01 02:02:12;;;;;;;20.75;11.85;;;;;;;;;;4958613;28;20178;-93
2022/03/01 02:04:38;;;;;;;19.05;11.02;;;;;;;;;;4958561;28;20073;-94
2022/03/01 02:07:05;;;;;;;17.77;10.80;;;;;;;;;;4943008;28;20039;-95
2022/03/01 02:09:40;;;;;;;19.23;10.93;;;;;;;;;;4959034;28;20056;-94
2022/03/01 02:12:06;;;;;;;;;;;;;;;;;;4959532;28;20054;-94
2022/03/01 02:14:34;;;;;;;18.38;10.77;;;;;;;;;;4958344;28;19986;-94
2022/03/01 02:17:01;;;;;;;16.38;9.80;;;;;;;;;;4958109;28;20089;-96
2022/03/01 02:19:27;;;;;;;19.75;10.82;;;;;;;;;;4942330;28;20221;-95
2022/03/01 02:21:57;;;;;;;19.80;11.13;;;;;;;;;;4957622;28;20047;-96
2022/03/01 02:24:27;;;;;;;19.77;11.95;;;;;;;;;;4942699;28;20038;-95
2022/03/01 02:26:57;;;;;;;18.67;10.82;;;;;;;;;;4957926;28;20454;-93
2022/03/01 02:29:23;;;;;;;21.27;11.73;;;;;;;;;;4958260;28;20066;-93
2022/03/01 02:31:50;;;;;;;21.10;11.43;;;;;;;;;;4957897;28;20101;-94
2022/03/01 02:34:17;;;;;;;19.20;10.65;;;;;;;;;;4959040;28;20375;-93
2022/03/01 02:36:43;;;;;;;18.70;11.02;;;;;;;;;;4942881;28;20039;-96
2022/03/01 02:39:09;;;;;;;17.88;11.30;;;;;;;;;;4958169;28;20046;-94
2022/03/01 02:41:38;;;;;;;18.75;12.00;;;;;;;;;;4958149;28;20489;-95
2022/03/01 02:44:05;;;;;;;19.98;11.80;;;;;;;;;;4958781;28;20422;-93
2022/03/01 02:46:31;;;;;;;17.92;10.50;;;;;;;;;;4958047;28;20039;-95
2022/03/01 02:48:57;;;;;;;17.52;11.35;;;;;;;;;;4958525;28;20050;-95
2022/03/01 02:51:23;;;;;;;19.08;11.43;;;;;;;;;;4958415;28;20133;-95
2022/03/01 02:53:49;;;;;;;18.50;11.50;;;;;;;;;;4942260;28;20502;-95
2022/03/01 02:56:15;;;;;;;18.27;11.63;;;;;;;;;;4958168;28;20047;-93
2022/03/01 02:58:41;;;;;;;19.45;12.23;;;;;;;;;;4941829;28;20047;-93
2022/03/01 03:01:08;;;;;;;18.17;11.88;;;;;;;;;;4958775;28;20077;-93
2022/03/01 03:03:34;;;;;;;20.77;11.40;;;;;;;;;;4957998;28;20585;-94
2022/03/01 03:06:00;;;;;;;18.60;11.68;;;;;;;;;;4942171;28;20474;-94
2022/03/01 03:08:26;;;;;;;19.48;11.80;;;;;;;;;;4941784;28;20050;-94
2022/03/01 03:10:53;;;;;;;19.02;12.07;;;;;;;;;;4957936;28;20047;-94
2022/03/01 03:13:20;;;;;;;20.33;11.88;;;;;;;;;;4957891;28;20043;-94
2022/03/01 03:15:46;;;;;;;18.73;11.43;;;;;;;;;;4958536;28;20038;-95
2022/03/01 03:18:12;;;;;;;21.42;12.07;;;;;;;;;;4957706;28;20061;-92
2022/03/01 03:20:38;;;;;;;21.77;12.45;;;;;;;;;;4958673;28;20499;-93
2022/03/01 03:23:05;;;;;;;20.23;11.77;;;;;;;;;;4958897;28;20038;-93
2022/03/01 03:25:31;;;;;;;19.65;11.63;;;;;;;;;;4957910;28;20049;-96
2022/03/01 03:27:57;;;;;;;20.52;12.50;;;;;;;;;;4942272;28;20042;-94
2022/03/01 03:30:23;;;;;;;19.52;11.95;;;;;;;;;;4941795;28;20050;-95
2022/03/01 03:32:49;;;;;;;20.10;12.35;;;;;;;;;;4942609;28;20097;-93
2022/03/01 03:35:15;;;;;;;21.00;11.93;;;;;;;;;;4961538;28;20085;-92
2022/03/01 03:37:41;;;;;;;19.95;11.60;;;;;;;;;;4961002;28;20070;-91
2022/03/01 03:40:07;;;;;;;22.08;12.07;;;;;;;;;;4961153;28;20043;-94
2022/03/01 03:42:34;;;;;;;19.20;11.77;;;;;;;;;;4945827;28;20482;-96
2022/03/01 03:45:00;;;;;;;19.92;11.52;;;;;;;;;;4944922;28;20078;-96
2022/03/01 03:47:26;;;;;;;19.00;11.88;;;;;;;;;;4960981;28;20045;-95
2022/03/01 03:49:52;;;;;;;17.80;11.07;;;;;;;;;;4961104;28;20079;-94
2022/03/01 03:52:18;;;;;;;19.20;12.50;;;;;;;;;;4961173;28;20428;-96
2022/03/01 03:54:44;;;;;;;19.73;12.45;;;;;;;;;;4961009;28;20074;-94
2022/03/01 03:57:10;;;;;;;20.00;13.05;;;;;;;;;;4960919;28;20070;-96
2022/03/01 03:59:39;;;;;;;20.98;12.85;;;;;;;;;;4961164;28;20046;-95
2022/03/01 04:02:06;;;;;;;20.35;13.00;;;;;;;;;;4945038;28;20031;-95
2022/03/01 04:04:32;;;;;;;18.20;11.68;;;;;;;;;;4944838;28;20331;-96
2022/03/01 04:06:58;;;;;;;20.13;13.02;;;;;;;;;;4961531;28;20062;-94
2022/03/01 04:09:24;;;;;;;20.95;13.02;;;;;;;;;;4960871;28;20050;-94
2022/03/01 04:11:50;;;;;;;21.05;13.60;;;;;;;;;;4961075;28;20590;-94
2022/03/01 04:14:17;;;;;;;22.80;12.30;;;;;;;;;;4963258;28;20378;-94
2022/03/01 04:16:44;;;;;;;19.27;12.05;;;;;;;;;;4960430;28;20061;-93
2022/03/01 04:19:10;;;;;;;20.90;12.82;;;;;;;;;;4961031;28;20098;-96
2022/03/01 04:21:36;;;;;;;18.40;12.45;;;;;;;;;;4944945;28;20100;-93
2022/03/01 04:24:03;;;;;;;20.55;12.80;;;;;;;;;;4960834;28;20484;-95
2022/03/01 04:26:29;;;;;;;21.35;12.15;;;;;;;;;;4960756;28;20038;-95
2022/03/01 04:28:55;;;;;;;21.23;12.68;;;;;;;;;;4944549;28;20133;-94
2022/03/01 04:31:21;;;;;;;20.35;12.85;;;;;;;;;;4960726;28;20149;-94
2022/03/01 04:33:47;;;;;;;20.45;12.35;;;;;;;;;;4960535;28;20046;-93
2022/03/01 04:36:14;;;;;;;22.15;12.93;;;;;;;;;;4960600;28;20042;-95
2022/03/01 04:38:40;;;;;;;18.67;11.85;;;;;;;;;;4944718;28;20054;-95
2022/03/01 04:41:06;;;;;;;21.65;12.80;;;;;;;;;;4960793;28;20037;-95
2022/03/01 04:43:32;;;;;;;21.08;12.48;;;;;;;;;;4944079;28;20043;-95
2022/03/01 04:45:58;;;;;;;20.27;12.55;;;;;;;;;;4961209;28;20061;-94
2022/03/01 04:48:24;;;;;;;20.60;12.80;;;;;;;;;;4945295;28;20046;-93
2022/03/01 04:50:51;;;;;;;19.05;12.77;;;;;;;;;;4960280;28;20035;-94
2022/03/01 04:53:17;;;;;;;22.45;12.60;;;;;;;;;;4943777;28;20039;-96
2022/03/01 04:55:44;;;;;;;20.42;12.90;;;;;;;;;;4959973;28;20105;-94
2022/03/01 04:58:10;;;;;;;20.42;13.20;;;;;;;;;;4944698;28;20043;-94
2022/03/01 05:00:36;;;;;;;21.92;13.93;;;;;;;;;;4943938;28;20486;-96
2022/03/01 05:03:02;;;;;;;21.20;12.95;;;;;;;;;;4960243;28;20118;-91
2022/03/01 05:05:28;;;;;;;21.15;12.82;;;;;;;;;;4961091;28;20136;-95
2022/03/01 05:07:55;;;;;;;22.75;12.75;;;;;;;;;;4960393;28;20045;-94
2022/03/01 05:10:21;;;;;;;21.60;13.10;;;;;;;;;;4959469;28;20058;-94
2022/03/01 05:12:52;;;;;;;23.75;13.25;;;;;;;;;;4959654;28;20038;-94
2022/03/01 05:15:19;;;;;;;20.85;13.27;;;;;;;;;;4959710;28;20082;-95
2022/03/01 05:17:45;;;;;;;23.77;13.25;;;;;;;;;;4959434;28;20043;-95
2022/03/01 05:20:12;;;;;;;21.83;14.23;;;;;;;;;;4959306;28;20070;-95
2022/03/01 05:22:38;;;;;;;20.90;12.18;;;;;;;;;;4959860;28;20039;-95
2022/03/01 05:25:05;;;;;;;21.25;13.25;;;;;;;;;;4959851;28;20042;-93
2022/03/01 05:27:31;;;;;;;23.45;14.25;;;;;;;;;;4943656;28;20490;-95
2022/03/01 05:29:57;;;;;;;20.60;13.00;;;;;;;;;;4943649;28;20046;-96
2022/03/01 05:32:23;;;;;;;22.80;12.85;;;;;;;;;;4959904;28;20541;-96
2022/03/01 05:34:49;;;;;;;21.20;13.07;;;;;;;;;;4959977;28;20043;-96
2022/03/01 05:37:15;;;;;;;20.65;12.82;;;;;;;;;;4959447;28;20042;-93
2022/03/01 05:39:41;;;;;;;23.38;13.82;;;;;;;;;;4943942;28;20050;-94
2022/03/01 05:42:08;;;;;;;23.73;13.98;;;;;;;;;;4959571;28;20034;-94
2022/03/01 05:44:34;;;;;;;22.67;13.82;;;;;;;;;;4959351;28;20254;-96
2022/03/01 05:47:00;;;;;;;21.42;12.88;;;;;;;;;;4958944;28;20035;-93
2022/03/01 05:49:27;;;;;;;20.13;13.25;;;;;;;;;;4961604;28;20489;-95
2022/03/01 05:51:53;;;;;;;21.58;13.57;;;;;;;;;;4959848;28;20046;-94
2022/03/01 05:54:19;;;;;;;21.75;13.27;;;;;;;;;;4959797;28;20042;-95
2022/03/01 05:56:45;;;;;;;21.00;13.18;;;;;;;;;;4959656;28;20047;-96
2022/03/01 05:59:11;;;;;;;20.45;13.32;;;;;;;;;;4958726;28;20133;-95
2022/03/01 06:01:37;;;;;;;23.30;14.18;;;;;;;;;;4943099;28;20050;-95
2022/03/01 06:04:03;;;;;;;20.70;12.70;;;;;;;;;;4959011;28;20042;-94
2022/03/01 06:06:30;;;;;;;21.00;13.00;;;;;;;;;;4942816;28;20054;-93
2022/03/01 06:08:56;;;;;;;22.30;15.10;;;;;;;;;;4958956;28;20072;-96
2022/03/01 06:11:22;;;;;;;21.67;14.15;;;;;;;;;;4959022;28;20063;-93
2022/03/01 06:13:48;;;;;;;23.55;13.50;;;;;;;;;;4958308;28;20390;-95
2022/03/01 06:16:14;;;;;;;21.85;13.35;;;;;;;;;;4942992;28;20129;-93
2022/03/01 06:18:40;;;;;;;23.20;13.55;;;;;;;;;;4959142;28;20047;-95
2022/03/01 06:21:07;;;;;;;60.67;46.92;;;;;;;;;;4942832;28;20035;-94
2022/03/01 06:23:33;;;;;;;27.17;19.02;;;;;;;;;;4958690;28;20043;-94
2022/03/01 06:25:59;;;;;;;61.28;44.85;;;;;;;;;;4958797;28;20050;-95
2022/03/01 06:28:25;;;;;;;25.98;15.90;;;;;;;;;;4958961;28;20043;-96
2022/03/01 06:30:51;;;;;;;20.33;13.10;;;;;;;;;;4958916;28;20084;-95
2022/03/01 06:33:18;;;;;;;32.78;21.95;;;;;;;;;;4959004;28;20047;-95
2022/03/01 06:35:47;;;;;;;32.88;22.98;;;;;;;;;;4958353;28;20053;-94
2022/03/01 06:38:13;;;;;;;27.45;17.15;;;;;;;;;;4958247;28;20035;-94
2022/03/01 06:40:39;;;;;;;33.15;26.27;;;;;;;;;;4942303;28;20394;-93
2022/03/01 06:43:05;;;;;;;26.65;16.55;;;;;;;;;;4958155;28;20039;-93
2022/03/01 06:45:32;;;;;;;21.95;14.45;;;;;;;;;;4957934;28;20073;-95
2022/03/01 06:47:59;;;;;;;24.50;14.13;;;;;;;;;;4943217;28;20088;-94
2022/03/01 06:50:26;;;;;;;24.08;14.82;;;;;;;;;;4958423;28;20126;-94
2022/03/01 06:52:52;;;;;;;23.20;13.65;;;;;;;;;;4942441;28;20078;-95
2022/03/01 06:55:21;;;;;;;22.65;14.57;;;;;;;;;;4958479;28;20038;-96
2022/03/01 06:57:47;;;;;;;24.55;14.85;;;;;;;;;;4942426;28;20467;-94
2022/03/01 07:00:14;;;;;;;24.55;15.13;;;;;;;;;;4958926;28;20125;-94
2022/03/01 07:02:40;;;;;;;22.50;14.13;;;;;;;;;;4958911;28;20142;-96
2022/03/01 07:05:07;;;;;;;22.88;14.60;;;;;;;;;;4958867;28;20042;-94
2022/03/01 07:07:34;;;;;;;23.63;14.35;;;;;;;;;;4947466;28;20050;-93
2022/03/01 07:10:00;;;;;;;20.55;13.00;;;;;;;;;;4965010;28;20106;-95
2022/03/01 07:12:26;;;;;;;23.60;14.15;;;;;;;;;;4965370;28;20046;-94
2022/03/01 07:14:58;;;;;;;23.13;14.38;;;;;;;;;;4971353;28;20194;-95
2022/03/01 07:17:32;;;;;;;21.63;13.88;;;;;;;;;;4957082;28;20125;-94
2022/03/01 07:20:00;;;;;;;23.83;14.18;;;;;;;;;;4958142;28;20046;-94
2022/03/01 07:22:26;;;;;;;23.50;14.52;;;;;;;;;;4968164;28;20042;-96
2022/03/01 07:24:55;;;;;;;21.70;14.40;;;;;;;;;;4957577;28;20034;-94
2022/03/01 07:27:45;;;;;;;24.27;15.32;;;;;;;;;;5115167;23;20022;-90
2022/03/01 07:33:22;;;;;;;24.52;14.75;;;;;;;;;;5012182;23;20049;-94
2022/03/01 07:41:07;;;;;;;21.63;13.80;;;;;;;;;;4991094;28;20077;-94
2022/03/01 07:43:33;;;;;;;20.13;13.65;;;;;;;;;;4973248;28;20464;-95
2022/03/01 08:13:52;;;;;;;22.25;14.10;;;;;;;;;;6113067;23;21228;31
2022/03/01 08:53:04;;;;;;;25.63;15.88;;;;;;;;;;5828628;22;20073;-93
2022/03/01 10:15:50;;;;;;;20.48;11.85;;;;;;;;;;1004081;22;20324;-89
2022/03/01 10:18:16;;;;;;;19.05;11.32;;;;;;;;;;4944958;28;20058;-95
2022/03/01 10:20:45;;;;;;;19.13;11.77;;;;;;;;;;4961145;28;20050;-91
2022/03/01 10:23:13;;;;;;;17.27;11.93;;;;;;;;;;4946049;28;20129;-92
2022/03/01 10:25:40;;;;;;;18.65;11.95;;;;;;;;;;4948832;28;20050;-91
2022/03/01 10:28:29;;;;;;;20.02;13.13;;;;;;;;;;4965857;28;20055;-93
2022/03/01 10:55:48;;;;;;;18.63;12.77;;;;;;;;;;5855868;23;20059;-90
2022/03/01 10:58:15;;;;;;;17.75;12.05;;;;;;;;;;5119003;22;20050;-94
2022/03/01 11:11:26;;;;;;;17.83;12.05;;;;;;;;;;4994359;28;20038;-94
2022/03/01 12:56:22;;;;;;;23.17;14.23;;;;;;;;;;6049934;23;20976;-93
2022/03/01 13:43:52;;;;;;;21.38;15.27;;;;;;;;;;6041715;23;20934;-94
2022/03/01 13:46:18;;;;;;;20.80;14.00;;;;;;;;;;5563764;23;20057;-93
2022/03/01 13:48:44;;;;;;;21.05;13.73;;;;;;;;;;5883051;23;20287;-96
2022/03/01 13:59:30;;;;;;;20.95;14.68;;;;;;;;;;5112889;23;20519;-94
2022/03/01 14:01:56;;;;;;;21.45;13.88;;;;;;;;;;4981713;28;20069;-94
2022/03/01 14:04:26;;;;;;;23.38;15.02;;;;;;;;;;4982383;28;20034;-94
2022/03/01 14:06:53;;;;;;;21.80;13.77;;;;;;;;;;4982704;28;20038;-96
2022/03/01 14:09:23;;;;;;;22.27;14.45;;;;;;;;;;4981872;28;20536;-94
2022/03/01 14:11:55;;;;;;;22.73;14.73;;;;;;;;;;4981753;28;20038;-95
2022/03/01 14:14:21;;;;;;;23.33;14.32;;;;;;;;;;4997975;28;20045;-95
2022/03/01 14:16:48;;;;;;;21.08;14.35;;;;;;;;;;4981715;28;20125;-94
2022/03/01 14:19:16;;;;;;;21.85;14.88;;;;;;;;;;5000583;28;20097;-93
2022/03/01 14:21:42;;;;;;;24.30;15.88;;;;;;;;;;4986175;28;20038;-95
2022/03/01 14:24:08;;;;;;;22.20;14.88;;;;;;;;;;4981546;28;20038;-94
2022/03/01 14:26:35;;;;;;;23.55;15.35;;;;;;;;;;4981678;28;20049;-93
2022/03/01 14:29:02;;;;;;;25.13;15.60;;;;;;;;;;4984430;28;20035;-94
2022/03/01 14:31:31;;;;;;;23.27;15.40;;;;;;;;;;4999630;28;20048;-94
2022/03/01 14:33:58;;;;;;;22.77;15.18;;;;;;;;;;4982002;28;20128;-94
2022/03/01 14:36:24;;;;;;;20.85;14.65;;;;;;;;;;4979592;28;20041;-94
2022/03/01 14:38:50;;;;;;;21.15;15.05;;;;;;;;;;4981048;28;20428;-95
2022/03/01 14:41:22;;;;;;;21.67;15.00;;;;;;;;;;4981530;28;20106;-94
2022/03/01 14:43:50;;;;;;;21.23;15.32;;;;;;;;;;4980731;28;20137;-94
2022/03/01 14:46:17;;;;;;;22.60;14.65;;;;;;;;;;4980959;28;20362;-94
2022/03/01 14:48:43;;;;;;;22.60;15.38;;;;;;;;;;4997269;28;20041;-95
2022/03/01 14:51:09;;;;;;;22.25;16.33;;;;;;;;;;4980487;28;20186;-95
2022/03/01 14:53:36;;;;;;;21.90;14.90;;;;;;;;;;4980693;28;20037;-94
2022/03/01 14:56:02;;;;;;;22.65;15.40;;;;;;;;;;4997036;28;20495;-94
2022/03/01 14:58:28;;;;;;;24.83;15.07;;;;;;;;;;4981055;28;20049;-95
2022/03/01 15:00:54;;;;;;;23.42;15.25;;;;;;;;;;4996895;28;20048;-94
2022/03/01 15:03:23;;;;;;;32.90;15.95;;;;;;;;;;4981014;28;20041;-95
2022/03/01 15:05:50;;;;;;;23.67;14.85;;;;;;;;;;4981526;28;20042;-96
2022/03/01 15:08:16;;;;;;;21.80;14.63;;;;;;;;;;4981030;28;20125;-94
2022/03/01 15:10:43;;;;;;;21.10;14.20;;;;;;;;;;4997224;28;20100;-94
2022/03/01 15:13:09;;;;;;;20.55;14.38;;;;;;;;;;4997761;28;20042;-93
2022/03/01 15:15:35;;;;;;;20.98;14.77;;;;;;;;;;4981952;28;20052;-93
2022/03/01 15:18:02;;;;;;;22.90;14.88;;;;;;;;;;4980769;28;20072;-93
2022/03/01 15:20:31;;;;;;;25.40;16.92;;;;;;;;;;5008228;28;20180;-95
2022/03/01 15:22:57;;;;;;;22.67;15.73;;;;;;;;;;4985824;28;20042;-95
2022/03/01 15:25:27;;;;;;;22.80;15.32;;;;;;;;;;5149969;23;20049;-92
2022/03/01 15:55:28;;;;;;;21.80;15.70;;;;;;;;;;1118314;22;21488;-90
2022/03/01 15:57:54;;;;;;;23.52;16.27;;;;;;;;;;4975350;28;20063;-92
2022/03/01 16:00:20;;;;;;;23.63;16.20;;;;;;;;;;4965174;28;20054;-96
2022/03/01 16:02:47;;;;;;;21.83;14.50;;;;;;;;;;4946709;29;20170;-94
2022/03/01 16:05:13;;;;;;;25.13;16.67;;;;;;;;;;4946833;29;20046;-95
2022/03/01 16:07:39;;;;;;;24.33;16.77;;;;;;;;;;4963356;28;20134;-95
2022/03/01 16:10:06;;;;;;;23.60;16.27;;;;;;;;;;4946806;29;20118;-96
2022/03/01 16:12:53;;;;;;;;;;;;;;;;;;;;;
2022/03/01 16:15:20;;;;;;;26.15;16.38;;;;;;;;;;4960274;29;20126;-94
2022/03/01 16:17:51;;;;;;;24.83;16.77;;;;;;;;;;4943716;29;20073;-96
2022/03/01 16:20:19;;;;;;;26.15;17.00;;;;;;;;;;4944058;29;20459;-96
2022/03/01 16:22:45;;;;;;;23.73;16.40;;;;;;;;;;4946865;29;20119;-93
2022/03/01 16:25:14;;;;;;;25.27;16.75;;;;;;;;;;4962352;28;20086;-95
2022/03/01 16:27:40;;;;;;;22.00;14.90;;;;;;;;;;4945705;29;20047;-95
2022/03/01 16:30:11;;;;;;;22.88;15.43;;;;;;;;;;4944391;29;20049;-96
2022/03/01 16:32:40;;;;;;;22.92;16.52;;;;;;;;;;4968976;29;20047;-94
2022/03/01 16:35:09;;;;;;;23.90;16.77;;;;;;;;;;4956062;29;20054;-96
2022/03/01 16:37:46;;;;;;;23.40;16.23;;;;;;;;;;4968472;28;20442;-95
2022/03/01 16:40:26;;;;;;;24.90;17.00;;;;;;;;;;4951162;29;20039;-95
2022/03/01 16:43:17;;;;;;;26.20;18.05;;;;;;;;;;4970854;29;20062;-95
2022/03/01 16:45:49;;;;;;;24.10;17.45;;;;;;;;;;4967142;29;20046;-94
2022/03/01 16:48:15;;;;;;;26.08;17.27;;;;;;;;;;4947670;29;20517;-94
2022/03/01 16:50:41;;;;;;;23.40;16.17;;;;;;;;;;4948263;29;20043;-94
2022/03/01 16:53:07;;;;;;;23.08;16.05;;;;;;;;;;4966773;28;20086;-95
2022/03/01 17:01:32;;;;;;;24.30;17.55;;;;;;;;;;5087608;22;20046;-93
2022/03/01 17:04:11;;;;;;;23.70;17.10;;;;;;;;;;4990206;28;20109;-93
2022/03/01 17:09:41;;;;;;;24.02;17.08;;;;;;;;;;4903240;29;20059;-94
2022/03/01 17:12:12;;;;;;;24.38;16.45;;;;;;;;;;4994518;28;20529;-94
2022/03/01 17:15:03;;;;;;;;;;;;;;;;;;;;;
2022/03/01 17:18:01;;;;;;;;;;;;;;;;;;;;;
2022/03/01 17:21:06;;;;;;;25.55;16.55;;;;;;;;;;5412814;23;20057;-93
2022/03/01 17:23:34;;;;;;;24.85;16.52;;;;;;;;;;5050735;28;20049;-94
2022/03/01 17:26:02;;;;;;;24.63;16.85;;;;;;;;;;5018511;28;20099;-96
2022/03/01 17:28:31;;;;;;;25.05;17.08;;;;;;;;;;5023234;28;20049;-94
2022/03/01 17:30:57;;;;;;;25.35;17.60;;;;;;;;;;4985200;28;20038;-93
2022/03/01 17:33:26;;;;;;;25.88;16.88;;;;;;;;;;4982915;28;20041;-94
2022/03/01 17:42:45;;;;;;;24.88;17.10;;;;;;;;;;4859766;29;20033;-93
2022/03/01 17:46:38;;;;;;;;;;;;;;;;;;;;;
2022/03/01 17:49:06;;;;;;;25.02;17.10;;;;;;;;;;5104464;23;20060;-94
2022/03/01 18:08:49;;;;;;;25.00;17.92;;;;;;;;;;987716;23;21622;-90
2022/03/01 18:11:18;;;;;;;25.42;17.25;;;;;;;;;;4974460;28;20050;-95
2022/03/01 18:13:57;;;;;;;30.77;18.75;;;;;;;;;;5108503;23;20062;-94
2022/03/01 18:16:26;;;;;;;24.30;17.08;;;;;;;;;;4997841;28;20053;-93
2022/03/01 18:24:07;;;;;;;27.85;18.27;;;;;;;;;;5486857;23;20057;-93
2022/03/01 18:26:52;;;;;;;29.20;18.48;;;;;;;;;;5015812;28;20049;-93
2022/03/01 18:29:53;;;;;;;26.38;18.25;;;;;;;;;;5017592;28;20068;-93
2022/03/01 19:03:16;;;;;;;29.05;19.20;;;;;;;;;;5499473;23;20466;-94
2022/03/01 19:05:43;;;;;;;32.90;19.58;;;;;;;;;;5218225;23;20107;-92
2022/03/01 19:08:26;;;;;;;27.92;19.02;;;;;;;;;;5004310;28;20128;-92
2022/03/01 19:11:15;;;;;;;31.67;20.65;;;;;;;;;;5014723;28;20052;-93
2022/03/01 19:52:21;;;;;;;30.90;20.13;;;;;;;;;;5046447;23;20058;-94
2022/03/01 20:02:49;;;;;;;30.42;20.75;;;;;;;;;;5003736;28;20061;-95
2022/03/01 20:08:14;;;;;;;30.55;20.40;;;;;;;;;;5385823;22;20057;-94
2022/03/01 20:10:49;;;;;;;30.13;20.30;;;;;;;;;;4978731;28;20039;-96
2022/03/01 20:13:39;;;;;;;31.75;20.95;;;;;;;;;;4994337;28;20069;-94
2022/03/01 20:19:16;;;;;;;;;;;;;;;;;;;;;
2022/03/01 20:27:28;;;;;;;30.40;20.75;;;;;;;;;;5852808;23;20140;-95
2022/03/01 20:30:30;;;;;;;;;;;;;;;;;;;;;
2022/03/01 20:35:44;;;;;;;32.17;21.83;;;;;;;;;;5153177;23;20062;-94
2022/03/01 20:38:10;;;;;;;33.75;22.23;;;;;;;;;;4964277;28;20053;-94
2022/03/01 20:40:36;;;;;;;33.20;22.50;;;;;;;;;;4961402;28;20054;-93
2022/03/01 20:43:03;;;;;;;31.88;22.30;;;;;;;;;;4966569;28;20096;-93
2022/03/01 20:45:30;;;;;;;34.90;21.23;;;;;;;;;;4964547;28;20054;-96
2022/03/01 20:47:56;;;;;;;31.70;20.95;;;;;;;;;;4962376;28;20043;-93
2022/03/01 20:50:24;;;;;;;30.65;21.40;;;;;;;;;;4962820;28;20046;-96
2022/03/01 20:52:51;;;;;;;32.70;22.13;;;;;;;;;;4978673;28;20089;-94
2022/03/01 20:55:18;;;;;;;32.38;22.75;;;;;;;;;;4965653;28;20068;-93
2022/03/01 20:57:44;;;;;;;35.58;22.40;;;;;;;;;;4963099;28;20050;-95
2022/03/01 21:00:13;;;;;;;27.73;20.77;;;;;;;;;;4957141;28;20068;-93
2022/03/01 21:02:39;;;;;;;35.65;21.75;;;;;;;;;;4950345;28;20089;-93
2022/03/01 21:05:06;;;;;;;32.70;22.17;;;;;;;;;;4933975;28;20086;-94
2022/03/01 21:07:33;;;;;;;34.17;22.85;;;;;;;;;;4948364;28;20044;-93
2022/03/01 21:09:59;;;;;;;30.52;21.38;;;;;;;;;;4949283;28;20479;-95
2022/03/01 21:12:25;;;;;;;35.55;22.15;;;;;;;;;;4932569;28;20059;-93
2022/03/01 21:14:51;;;;;;;33.08;22.77;;;;;;;;;;4940942;29;20090;-90
2022/03/01 21:17:17;;;;;;;33.72;22.73;;;;;;;;;;4940406;29;20051;-93
2022/03/01 21:19:44;;;;;;;32.58;23.08;;;;;;;;;;4957226;29;20043;-93
2022/03/01 21:22:10;;;;;;;31.98;21.67;;;;;;;;;;4940029;29;20099;-96
2022/03/01 21:24:37;;;;;;;31.85;22.85;;;;;;;;;;4939947;29;20094;-96
2022/03/01 21:27:03;;;;;;;32.55;22.35;;;;;;;;;;4939547;29;20043;-92
2022/03/01 21:29:29;;;;;;;38.63;23.42;;;;;;;;;;4940505;29;20054;-95
2022/03/01 21:31:55;;;;;;;32.90;21.65;;;;;;;;;;4940126;29;20089;-96
2022/03/01 21:34:22;;;;;;;35.30;22.27;;;;;;;;;;4939646;29;20098;-93
2022/03/01 21:36:48;;;;;;;31.63;21.88;;;;;;;;;;4924018;29;20110;-94
2022/03/01 21:39:14;;;;;;;32.42;22.20;;;;;;;;;;4939766;29;20131;-93
2022/03/01 21:41:40;;;;;;;30.73;22.30;;;;;;;;;;4924398;29;20043;-94
2022/03/01 21:44:07;;;;;;;34.47;21.92;;;;;;;;;;4939922;29;20086;-95
2022/03/01 21:46:33;;;;;;;38.60;22.38;;;;;;;;;;4939596;29;20036;-91
2022/03/01 21:48:59;;;;;;;33.83;23.45;;;;;;;;;;4939508;29;20126;-93
2022/03/01 21:51:25;;;;;;;30.60;20.98;;;;;;;;;;4923968;29;20054;-92
2022/03/01 21:53:52;;;;;;;31.95;22.42;;;;;;;;;;4923734;29;20097;-93
2022/03/01 21:56:21;;;;;;;33.35;21.58;;;;;;;;;;4939171;29;20043;-94
2022/03/01 21:58:47;;;;;;;32.00;22.08;;;;;;;;;;4923316;29;20042;-94
2022/03/01 22:01:14;;;;;;;32.70;22.05;;;;;;;;;;4939369;29;20053;-93
2022/03/01 22:03:40;;;;;;;32.58;22.23;;;;;;;;;;4939055;29;20474;-93
2022/03/01 22:06:06;;;;;;;33.55;22.17;;;;;;;;;;4939065;29;20035;-93
2022/03/01 22:08:32;;;;;;;32.90;22.67;;;;;;;;;;4939062;29;20124;-93
2022/03/01 22:10:58;;;;;;;32.55;22.30;;;;;;;;;;4941421;28;20047;-92
2022/03/01 22:13:24;;;;;;;35.60;22.63;;;;;;;;;;4949896;28;20089;-92
2022/03/01 22:15:50;;;;;;;32.90;22.55;;;;;;;;;;4958578;28;20151;-92
2022/03/01 22:18:17;;;;;;;32.90;22.20;;;;;;;;;;4958322;28;20045;-93
2022/03/01 22:20:43;;;;;;;33.25;21.95;;;;;;;;;;4958218;28;20050;-93
2022/03/01 22:23:09;;;;;;;36.00;23.00;;;;;;;;;;4975706;28;20042;-93
2022/03/01 22:25:35;;;;;;;36.45;23.30;;;;;;;;;;4957643;28;20078;-91
2022/03/01 22:28:01;;;;;;;34.95;22.63;;;;;;;;;;4957948;28;20050;-91
2022/03/01 22:30:27;;;;;;;33.67;23.45;;;;;;;;;;4957885;28;20046;-91
2022/03/01 22:32:53;;;;;;;36.40;23.20;;;;;;;;;;4975067;28;20177;-92
2022/03/01 22:35:19;;;;;;;33.78;22.67;;;;;;;;;;4958448;28;20051;-94
2022/03/01 22:37:45;;;;;;;36.95;22.67;;;;;;;;;;4957791;28;20046;-89
2022/03/01 22:40:12;;;;;;;34.20;22.92;;;;;;;;;;4941612;28;20047;-92
2022/03/01 22:42:38;;;;;;;30.60;21.58;;;;;;;;;;4942359;28;20038;-91
2022/03/01 22:45:07;;;;;;;34.40;22.20;;;;;;;;;;4957283;28;20046;-92
2022/03/01 22:47:33;;;;;;;32.88;21.85;;;;;;;;;;4957797;28;20557;-92
2022/03/01 22:49:59;;;;;;;33.63;22.17;;;;;;;;;;4957123;28;20129;-91